createdAt,value
2023-02-22T00:00:43.009Z,8.85
2023-02-22T00:03:15.574Z,7.30
2023-02-22T00:05:47.206Z,4.93
2023-02-22T00:08:15.153Z,5.25
2023-02-22T00:10:42.272Z,5.03
2023-02-22T00:13:10.002Z,5.20
2023-02-22T00:15:37.169Z,4.82
2023-02-22T00:18:05.209Z,5.05
2023-02-22T00:20:32.353Z,4.13
2023-02-22T00:23:01.430Z,4.82
2023-02-22T00:25:28.588Z,4.78
2023-02-22T00:27:56.250Z,5.20
2023-02-22T00:30:25.120Z,4.60
2023-02-22T00:32:52.321Z,6.18
2023-02-22T00:35:19.972Z,6.97
2023-02-22T00:37:50.615Z,11.77
2023-02-22T00:40:18.930Z,8.38
2023-02-22T00:42:48.979Z,6.80
2023-02-22T00:45:17.232Z,6.93
2023-02-22T00:47:44.338Z,7.88
2023-02-22T00:50:11.521Z,6.80
2023-02-22T00:52:38.858Z,6.30
2023-02-22T00:55:06.554Z,7.53
2023-02-22T00:57:35.190Z,8.25
2023-02-22T01:00:11.904Z,5.78
2023-02-22T01:02:39.817Z,6.20
2023-02-22T01:05:07.877Z,5.10
2023-02-22T01:07:35.041Z,4.90
2023-02-22T01:10:02.839Z,6.20
2023-02-22T01:12:30.157Z,4.75
2023-02-22T01:14:58.175Z,4.30
2023-02-22T01:17:25.677Z,5.10
2023-02-22T01:19:54.015Z,5.72
2023-02-22T01:22:21.379Z,5.00
2023-02-22T01:24:49.120Z,6.05
2023-02-22T01:27:16.376Z,6.70
2023-02-22T01:29:43.542Z,5.13
2023-02-22T01:32:12.053Z,5.47
2023-02-22T01:34:39.542Z,5.73
2023-02-22T01:37:06.657Z,5.57
2023-02-22T01:39:33.964Z,4.77
2023-02-22T01:42:01.718Z,4.30
2023-02-22T01:44:32.926Z,4.67
2023-02-22T01:47:00.541Z,4.70
2023-02-22T01:49:28.727Z,5.90
2023-02-22T01:51:56.581Z,8.00
2023-02-22T01:54:28.377Z,7.20
2023-02-22T01:57:00.859Z,8.00
2023-02-22T01:59:28.979Z,7.40
2023-02-22T02:01:56.102Z,7.47
2023-02-22T02:04:26.531Z,7.47
2023-02-22T02:06:54.137Z,7.30
2023-02-22T02:09:41.507Z,8.40
2023-02-22T02:12:09.365Z,10.57
2023-02-22T02:14:40.449Z,7.93
2023-02-22T02:17:14.438Z,9.97
2023-02-22T02:19:50.525Z,9.07
2023-02-22T02:22:22.353Z,9.10
2023-02-22T02:25:07.832Z,12.63
2023-02-22T02:27:44.944Z,13.47
2023-02-22T02:30:14.891Z,12.53
2023-02-22T02:32:58.912Z,11.20
2023-02-22T02:35:29.159Z,10.83
2023-02-22T02:38:03.634Z,8.43
2023-02-22T02:40:35.949Z,9.30
2023-02-22T02:43:08.675Z,7.13
2023-02-22T02:45:37.471Z,6.67
2023-02-22T02:48:04.561Z,7.50
2023-02-22T02:50:36.418Z,9.43
2023-02-22T02:53:04.071Z,9.60
2023-02-22T02:55:31.196Z,8.57
2023-02-22T02:58:00.290Z,10.10
2023-02-22T03:00:28.142Z,9.13
2023-02-22T03:02:58.947Z,9.33
2023-02-22T03:05:41.121Z,9.10
2023-02-22T03:08:10.875Z,8.77
2023-02-22T03:10:53.663Z,14.43
2023-02-22T03:13:26.136Z,18.27
2023-02-22T03:16:05.899Z,20.60
2023-02-22T03:18:37.041Z,38.27
2023-02-22T03:21:22.864Z,44.17
2023-02-22T03:23:56.163Z,30.93
2023-02-22T03:26:35.559Z,32.47
2023-02-22T03:29:05.102Z,22.60
2023-02-22T03:31:33.909Z,22.37
2023-02-22T03:34:02.134Z,16.60
2023-02-22T03:36:29.919Z,15.57
2023-02-22T03:38:58.300Z,15.73
2023-02-22T03:41:25.665Z,14.23
2023-02-22T03:43:54.853Z,14.27
2023-02-22T03:46:22.130Z,14.13
2023-02-22T03:48:54.674Z,15.23
2023-02-22T03:51:22.195Z,16.20
2023-02-22T03:53:49.594Z,17.23
2023-02-22T03:56:21.650Z,20.67
2023-02-22T03:58:48.737Z,20.00
2023-02-22T04:01:16.145Z,17.87
2023-02-22T04:03:43.486Z,17.00
2023-02-22T04:06:10.650Z,16.57
2023-02-22T04:08:37.839Z,15.10
2023-02-22T04:11:05.079Z,15.67
2023-02-22T04:13:32.171Z,16.37
2023-02-22T04:15:59.412Z,15.00
2023-02-22T04:18:26.586Z,15.13
2023-02-22T04:20:53.707Z,15.40
2023-02-22T04:23:20.821Z,17.37
2023-02-22T04:25:48.008Z,14.57
2023-02-22T04:28:15.170Z,17.57
2023-02-22T04:30:43.860Z,20.13
2023-02-22T04:33:11.048Z,21.97
2023-02-22T04:35:38.239Z,20.20
2023-02-22T04:38:05.498Z,18.33
2023-02-22T04:40:32.638Z,19.33
2023-02-22T04:43:00.312Z,19.60
2023-02-22T04:45:27.491Z,21.13
2023-02-22T04:47:54.701Z,19.93
2023-02-22T04:50:21.792Z,22.23
2023-02-22T04:52:48.923Z,21.00
2023-02-22T04:55:16.677Z,21.30
2023-02-22T04:57:43.827Z,16.83
2023-02-22T05:00:11.218Z,19.33
2023-02-22T05:02:41.412Z,20.23
2023-02-22T05:05:08.654Z,19.57
2023-02-22T05:07:35.751Z,16.93
2023-02-22T05:10:02.999Z,17.23
2023-02-22T05:12:30.567Z,18.43
2023-02-22T05:14:57.662Z,16.63
2023-02-22T05:17:24.795Z,16.93
2023-02-22T05:19:51.920Z,16.73
2023-02-22T05:22:19.039Z,15.97
2023-02-22T05:24:46.155Z,15.73
2023-02-22T05:27:13.252Z,18.07
2023-02-22T05:29:40.645Z,19.90
2023-02-22T05:32:07.831Z,20.90
2023-02-22T05:34:35.011Z,27.80
2023-02-22T05:37:03.425Z,23.70
2023-02-22T05:39:30.831Z,27.03
2023-02-22T05:41:58.007Z,24.47
2023-02-22T05:44:25.282Z,28.13
2023-02-22T05:46:52.517Z,27.50
2023-02-22T05:49:19.665Z,28.07
2023-02-22T05:51:47.231Z,30.30
2023-02-22T05:54:14.386Z,31.17
2023-02-22T05:56:41.532Z,32.53
2023-02-22T05:59:08.662Z,35.30
2023-02-22T06:01:35.794Z,33.07
2023-02-22T06:04:03.207Z,28.70
2023-02-22T06:06:30.304Z,26.77
2023-02-22T06:08:57.976Z,29.97
2023-02-22T06:11:25.106Z,29.83
2023-02-22T06:13:52.620Z,30.57
2023-02-22T06:16:21.704Z,27.90
2023-02-22T06:18:49.263Z,35.87
2023-02-22T06:21:17.527Z,29.63
2023-02-22T06:23:44.889Z,24.10
2023-02-22T06:26:12.022Z,26.63
2023-02-22T06:28:39.235Z,30.57
2023-02-22T06:31:06.592Z,30.27
2023-02-22T06:33:33.717Z,27.90
2023-02-22T06:36:00.836Z,29.27
2023-02-22T06:38:28.009Z,30.00
2023-02-22T06:40:58.239Z,28.90
2023-02-22T06:43:25.746Z,29.50
2023-02-22T06:45:53.218Z,29.33
2023-02-22T06:48:20.393Z,27.10
2023-02-22T06:50:47.482Z,26.47
2023-02-22T06:53:14.600Z,18.07
2023-02-22T06:55:41.708Z,16.00
2023-02-22T06:58:08.793Z,17.43
2023-02-22T07:00:35.978Z,19.83
2023-02-22T07:03:03.451Z,22.57
2023-02-22T07:05:30.635Z,25.00
2023-02-22T07:08:02.810Z,32.43
2023-02-22T07:10:30.486Z,33.33
2023-02-22T07:12:57.620Z,35.37
2023-02-22T07:15:25.420Z,35.97
2023-02-22T07:17:52.682Z,54.25
2023-02-22T07:20:20.653Z,46.50
2023-02-22T07:22:48.147Z,43.20
2023-02-22T07:25:15.286Z,41.05
2023-02-22T07:27:42.661Z,38.23
2023-02-22T07:30:16.208Z,22.70
2023-02-22T07:32:43.779Z,19.77
2023-02-22T07:35:43.270Z,22.50
2023-02-22T07:38:10.398Z,22.47
2023-02-22T07:40:37.902Z,20.90
2023-02-22T07:43:15.674Z,19.43
2023-02-22T07:45:42.859Z,21.47
2023-02-22T07:48:12.502Z,21.00
2023-02-22T07:50:39.794Z,39.67
2023-02-22T07:53:07.809Z,25.48
2023-02-22T07:55:34.942Z,26.27
2023-02-22T07:58:02.961Z,28.17
2023-02-22T08:00:30.856Z,20.08
2023-02-22T08:02:58.236Z,21.52
2023-02-22T08:05:25.840Z,104.75
2023-02-22T08:07:53.069Z,43.75
2023-02-22T08:10:20.792Z,32.92
2023-02-22T08:12:49.412Z,41.58
2023-02-22T08:15:17.801Z,27.63
2023-02-22T08:17:44.926Z,19.00
2023-02-22T08:20:12.095Z,13.40
2023-02-22T08:22:40.157Z,16.27
2023-02-22T08:25:07.553Z,28.23
2023-02-22T08:27:34.781Z,16.00
2023-02-22T08:30:01.903Z,28.80
2023-02-22T08:32:29.260Z,18.30
2023-02-22T08:34:56.475Z,12.20
2023-02-22T08:37:23.578Z,12.27
2023-02-22T08:39:50.665Z,17.33
2023-02-22T08:42:17.795Z,15.77
2023-02-22T08:44:44.907Z,15.50
2023-02-22T08:47:12.120Z,17.52
2023-02-22T08:49:39.266Z,15.38
2023-02-22T08:52:06.376Z,13.27
2023-02-22T08:54:33.532Z,13.45
2023-02-22T08:57:00.676Z,16.90
2023-02-22T08:59:27.779Z,16.92
2023-02-22T09:01:55.453Z,17.77
2023-02-22T09:04:22.630Z,14.43
2023-02-22T09:06:51.818Z,11.80
2023-02-22T09:09:21.281Z,11.05
2023-02-22T09:11:53.126Z,11.68
2023-02-22T09:14:20.373Z,12.02
2023-02-22T09:16:47.497Z,11.38
2023-02-22T09:19:14.689Z,8.80
2023-02-22T09:21:41.786Z,8.40
2023-02-22T09:24:08.919Z,7.20
2023-02-22T09:26:39.359Z,5.50
2023-02-22T09:29:10.538Z,6.30
2023-02-22T09:31:38.197Z,4.65
2023-02-22T09:34:13.624Z,4.60
2023-02-22T09:36:43.991Z,3.88
2023-02-22T09:39:11.387Z,4.82
2023-02-22T09:41:50.584Z,4.63
2023-02-22T09:44:23.800Z,7.10
2023-02-22T09:46:51.140Z,7.13
2023-02-22T09:49:19.385Z,6.82
2023-02-22T09:51:49.365Z,7.63
2023-02-22T09:54:34.879Z,6.43
2023-02-22T09:57:03.268Z,5.38
2023-02-22T09:59:34.350Z,4.50
2023-02-22T10:02:06.668Z,4.50
2023-02-22T10:04:38.399Z,5.25
2023-02-22T10:07:19.162Z,5.15
2023-02-22T10:09:46.492Z,7.72
2023-02-22T10:12:35.777Z,6.45
2023-02-22T10:15:02.908Z,5.60
2023-02-22T10:17:37.223Z,5.80
2023-02-22T10:20:08.623Z,4.72
2023-02-22T10:22:56.636Z,5.60
2023-02-22T10:25:27.384Z,5.30
2023-02-22T10:28:04.519Z,4.35
2023-02-22T10:30:34.341Z,4.93
2023-02-22T10:33:21.998Z,7.32
2023-02-22T10:35:49.135Z,8.73
2023-02-22T10:38:42.262Z,6.80
2023-02-22T10:41:09.433Z,5.95
2023-02-22T10:43:40.921Z,4.55
2023-02-22T10:46:08.526Z,4.05
2023-02-22T10:48:36.979Z,3.95
2023-02-22T10:51:04.997Z,5.18
2023-02-22T10:53:32.571Z,3.83
2023-02-22T10:56:06.199Z,7.93
2023-02-22T10:58:43.143Z,8.50
2023-02-22T11:01:29.230Z,4.45
2023-02-22T11:04:15.157Z,4.20
2023-02-22T11:06:44.413Z,4.43
2023-02-22T11:09:15.924Z,3.78
2023-02-22T11:11:47.017Z,4.72
2023-02-22T11:14:34.437Z,6.10
2023-02-22T11:17:01.793Z,5.28
2023-02-22T11:19:29.408Z,4.07
2023-02-22T11:21:57.441Z,3.97
2023-02-22T11:24:24.761Z,4.22
2023-02-22T11:26:52.818Z,4.13
2023-02-22T11:29:27.364Z,4.65
2023-02-22T11:31:54.572Z,4.05
2023-02-22T11:34:34.320Z,5.88
2023-02-22T11:37:22.196Z,4.82
2023-02-22T11:39:51.358Z,4.97
2023-02-22T11:42:23.265Z,5.40
2023-02-22T11:44:50.484Z,5.72
2023-02-22T11:47:17.660Z,4.38
2023-02-22T11:49:45.777Z,4.70
2023-02-22T11:52:27.144Z,4.88
2023-02-22T11:55:03.617Z,4.82
2023-02-22T11:57:36.201Z,4.25
2023-02-22T12:00:24.749Z,6.95
2023-02-22T12:03:10.286Z,4.65
2023-02-22T12:05:59.521Z,4.32
2023-02-22T12:08:32.953Z,7.05
2023-02-22T12:11:13.057Z,4.88
2023-02-22T12:13:46.740Z,4.65
2023-02-22T12:16:26.101Z,5.20
2023-02-22T12:18:59.730Z,4.35
2023-02-22T12:21:29.799Z,4.55
2023-02-22T12:24:04.804Z,6.25
2023-02-22T12:26:41.606Z,4.80
2023-02-22T12:29:27.647Z,5.53
2023-02-22T12:32:00.441Z,7.32
2023-02-22T12:34:32.543Z,9.75
2023-02-22T12:37:18.442Z,6.05
2023-02-22T12:39:53.211Z,5.65
2023-02-22T12:42:27.111Z,7.68
2023-02-22T12:44:59.269Z,7.65
2023-02-22T12:47:29.794Z,5.88
2023-02-22T12:49:59.071Z,5.35
2023-02-22T12:52:45.040Z,6.45
2023-02-22T12:55:12.210Z,10.90
2023-02-22T12:57:49.888Z,7.80
2023-02-22T13:00:17.845Z,8.43
2023-02-22T13:02:46.282Z,7.72
2023-02-22T13:05:17.937Z,9.93
2023-02-22T13:08:05.066Z,10.00
2023-02-22T13:10:35.015Z,9.48
2023-02-22T13:13:11.060Z,8.98
2023-02-22T13:15:41.628Z,9.20
2023-02-22T13:18:11.504Z,6.57
2023-02-22T13:20:41.362Z,7.95
2023-02-22T13:23:14.636Z,6.65
2023-02-22T13:25:41.758Z,11.27
2023-02-22T13:28:29.126Z,9.52
2023-02-22T13:31:02.133Z,11.05
2023-02-22T13:33:51.633Z,17.55
2023-02-22T13:36:30.967Z,14.40
2023-02-22T13:39:03.962Z,12.48
2023-02-22T13:41:50.958Z,15.13
2023-02-22T13:44:27.426Z,12.98
2023-02-22T13:46:57.445Z,11.93
2023-02-22T13:49:30.508Z,11.57
2023-02-22T13:51:59.021Z,15.13
2023-02-22T13:54:35.396Z,16.77
2023-02-22T13:57:03.174Z,12.13
2023-02-22T13:59:36.142Z,14.90
2023-02-22T14:02:04.446Z,13.90
2023-02-22T14:04:31.557Z,14.20
2023-02-22T14:07:05.739Z,8.40
2023-02-22T14:09:48.831Z,23.80
2023-02-22T14:12:31.407Z,17.90
2023-02-22T14:15:30.118Z,15.43
2023-02-22T14:17:57.784Z,8.07
2023-02-22T14:20:32.514Z,10.88
2023-02-22T14:23:19.962Z,18.98
2023-02-22T14:25:47.197Z,26.35
2023-02-22T14:28:33.119Z,15.07
2023-02-22T14:31:07.403Z,13.80
2023-02-22T14:33:53.238Z,18.55
2023-02-22T14:36:46.695Z,19.52
2023-02-22T14:39:33.124Z,20.42
2023-02-22T14:42:01.487Z,20.98
2023-02-22T14:44:32.156Z,25.40
2023-02-22T14:47:02.294Z,17.35
2023-02-22T14:49:29.549Z,13.75
2023-02-22T14:51:58.602Z,19.92
2023-02-22T14:54:25.764Z,20.42
2023-02-22T14:57:14.749Z,14.15
2023-02-22T14:59:46.877Z,15.85
2023-02-22T15:02:14.914Z,41.00
2023-02-22T15:04:45.165Z,31.27
2023-02-22T15:07:27.488Z,37.75
2023-02-22T15:10:17.492Z,36.90
2023-02-22T15:12:51.330Z,43.45
2023-02-22T15:15:21.882Z,41.20
2023-02-22T15:17:52.857Z,30.17
2023-02-22T15:20:20.720Z,41.67
2023-02-22T15:22:47.830Z,40.17
2023-02-22T15:25:15.026Z,43.63
2023-02-22T15:27:44.348Z,98.13
2023-02-22T15:30:26.575Z,163.40
2023-02-22T15:33:03.967Z,202.32
2023-02-22T15:35:33.355Z,184.15
2023-02-22T15:38:01.058Z,158.85
2023-02-22T15:40:33.133Z,77.75
2023-02-22T15:43:02.376Z,60.90
2023-02-22T15:45:29.787Z,47.78
2023-02-22T15:47:58.658Z,43.17
2023-02-22T15:50:26.023Z,40.20
2023-02-22T15:53:00.260Z,43.33
2023-02-22T15:55:28.700Z,38.25
2023-02-22T15:57:56.143Z,38.13
2023-02-22T16:00:33.960Z,35.10
2023-02-22T16:03:01.093Z,35.42
2023-02-22T16:06:03.426Z,31.20
2023-02-22T16:08:52.630Z,21.48
2023-02-22T16:11:22.363Z,20.92
2023-02-22T16:13:53.343Z,20.60
2023-02-22T16:16:25.208Z,19.15
2023-02-22T16:18:52.464Z,18.98
2023-02-22T16:21:21.733Z,18.60
2023-02-22T16:23:52.752Z,18.38
2023-02-22T16:26:22.957Z,19.27
2023-02-22T16:28:53.827Z,17.23
2023-02-22T16:31:33.591Z,16.90
2023-02-22T16:34:02.310Z,17.85
2023-02-22T16:36:38.568Z,18.08
2023-02-22T16:39:07.155Z,17.38
2023-02-22T16:41:34.322Z,20.67
2023-02-22T16:44:01.842Z,18.13
2023-02-22T16:46:29.769Z,19.25
2023-02-22T16:49:03.258Z,17.25
2023-02-22T16:51:30.429Z,18.70
2023-02-22T16:53:57.548Z,16.10
2023-02-22T16:56:30.517Z,18.05
2023-02-22T16:58:58.125Z,16.92
2023-02-22T17:01:25.282Z,21.08
2023-02-22T17:03:53.893Z,32.22
2023-02-22T17:06:21.294Z,22.30
2023-02-22T17:08:51.860Z,23.23
2023-02-22T17:11:19.063Z,37.25
2023-02-22T17:13:50.473Z,37.78
2023-02-22T17:16:17.988Z,39.58
2023-02-22T17:18:45.931Z,43.45
2023-02-22T17:21:13.142Z,56.25
2023-02-22T17:23:40.680Z,54.97
2023-02-22T17:26:07.778Z,63.90
2023-02-22T17:28:34.923Z,62.05
2023-02-22T17:31:02.454Z,57.42
2023-02-22T17:33:30.993Z,54.92
2023-02-22T17:35:58.461Z,55.80
2023-02-22T17:38:28.809Z,53.75
2023-02-22T17:40:55.979Z,52.25
2023-02-22T17:43:23.126Z,53.53
2023-02-22T17:45:50.286Z,50.10
2023-02-22T17:48:17.809Z,55.80
2023-02-22T17:50:46.144Z,56.95
2023-02-22T17:53:13.528Z,72.47
2023-02-22T17:55:41.232Z,67.82
2023-02-22T17:58:14.395Z,59.05
2023-02-22T18:00:42.715Z,64.55
2023-02-22T18:03:11.079Z,98.47
2023-02-22T18:05:41.708Z,89.82
2023-02-22T18:08:08.943Z,104.67
2023-02-22T18:10:36.170Z,141.97
2023-02-22T18:13:04.135Z,106.70
2023-02-22T18:15:35.525Z,77.90
2023-02-22T18:18:03.208Z,71.43
2023-02-22T18:20:38.310Z,59.67
2023-02-22T18:23:08.492Z,63.87
2023-02-22T18:25:36.155Z,69.77
2023-02-22T18:28:04.656Z,67.73
2023-02-22T18:30:31.827Z,77.67
2023-02-22T18:32:59.003Z,76.83
2023-02-22T18:35:26.186Z,65.17
2023-02-22T18:37:53.289Z,62.73
2023-02-22T18:40:20.452Z,57.27
2023-02-22T18:42:47.693Z,50.37
2023-02-22T18:45:14.880Z,46.40
2023-02-22T18:47:42.805Z,48.85
2023-02-22T18:50:13.166Z,51.37
2023-02-22T18:52:46.328Z,48.40
2023-02-22T18:55:14.210Z,48.03
2023-02-22T18:57:41.409Z,62.43
2023-02-22T19:00:09.640Z,51.30
2023-02-22T19:02:36.887Z,52.13
2023-02-22T19:05:06.068Z,63.17
2023-02-22T19:07:34.156Z,56.80
2023-02-22T19:10:02.561Z,46.50
2023-02-22T19:12:31.362Z,44.57
2023-02-22T19:14:59.388Z,43.10
2023-02-22T19:17:26.992Z,36.30
2023-02-22T19:19:54.161Z,40.10
2023-02-22T19:22:21.260Z,43.10
2023-02-22T19:24:48.385Z,38.50
2023-02-22T19:27:15.562Z,33.90
2023-02-22T19:29:42.720Z,43.07
2023-02-22T19:32:11.375Z,40.13
2023-02-22T19:34:38.627Z,37.00
2023-02-22T19:37:06.854Z,34.60
2023-02-22T19:39:34.774Z,36.80
2023-02-22T19:42:02.051Z,36.70
2023-02-22T19:44:29.191Z,33.50
2023-02-22T19:46:56.359Z,34.10
2023-02-22T19:51:58.100Z,36.67
2023-02-22T19:54:25.294Z,36.77
2023-02-22T19:56:52.476Z,34.40
2023-02-22T19:59:23.007Z,35.30
2023-02-22T20:01:52.641Z,43.50
2023-02-22T20:04:22.989Z,48.60
2023-02-22T20:06:51.905Z,49.43
2023-02-22T20:09:19.860Z,63.20
2023-02-22T20:11:47.368Z,60.43
2023-02-22T20:14:17.239Z,48.90
2023-02-22T20:16:44.484Z,60.07
2023-02-22T20:19:13.544Z,61.73
2023-02-22T20:21:40.700Z,59.30
2023-02-22T20:24:08.529Z,53.00
2023-02-22T20:26:36.723Z,45.60
2023-02-22T20:29:04.200Z,45.97
2023-02-22T20:31:31.733Z,46.50
2023-02-22T20:33:59.595Z,44.77
2023-02-22T20:36:27.456Z,45.97
2023-02-22T20:38:55.224Z,48.67
2023-02-22T20:41:29.147Z,50.33
2023-02-22T20:43:56.485Z,56.43
2023-02-22T20:46:23.966Z,51.37
2023-02-22T20:48:55.167Z,54.93
2023-02-22T20:51:22.280Z,53.67
2023-02-22T20:53:50.224Z,61.27
2023-02-22T20:56:18.387Z,61.70
2023-02-22T20:58:45.554Z,66.07
2023-02-22T21:01:13.789Z,63.17
2023-02-22T21:03:44.315Z,62.77
2023-02-22T21:06:14.808Z,57.67
2023-02-22T21:08:45.505Z,54.23
2023-02-22T21:11:13.093Z,54.23
2023-02-22T21:13:40.565Z,57.37
2023-02-22T21:16:07.911Z,53.53
2023-02-22T21:18:35.015Z,47.57
2023-02-22T21:21:10.432Z,53.87
2023-02-22T21:23:37.901Z,52.80
2023-02-22T21:26:05.155Z,48.03
2023-02-22T21:28:50.510Z,50.07
2023-02-22T21:31:18.488Z,51.50
2023-02-22T21:33:46.088Z,52.77
2023-02-22T21:36:13.695Z,48.70
2023-02-22T21:38:41.506Z,49.40
2023-02-22T21:41:11.003Z,53.43
2023-02-22T21:43:38.240Z,52.33
2023-02-22T21:46:05.682Z,52.97
2023-02-22T21:48:34.702Z,52.63
2023-02-22T21:51:14.121Z,52.20
2023-02-22T21:53:48.080Z,53.60
2023-02-22T21:56:15.671Z,53.77
2023-02-22T21:58:43.725Z,52.20
2023-02-22T22:01:11.061Z,50.60
2023-02-22T22:03:38.182Z,53.47
2023-02-22T22:06:10.840Z,52.20
2023-02-22T22:08:40.095Z,57.27
2023-02-22T22:11:10.614Z,52.47
2023-02-22T22:13:39.185Z,54.73
2023-02-22T22:16:10.616Z,53.90
2023-02-22T22:18:37.873Z,57.53
2023-02-22T22:21:12.512Z,70.50
2023-02-22T22:23:39.736Z,66.20
2023-02-22T22:26:13.237Z,68.97
2023-02-22T22:28:41.142Z,67.73
2023-02-22T22:31:08.401Z,63.20
2023-02-22T22:33:36.650Z,60.63
2023-02-22T22:36:04.762Z,59.97
2023-02-22T22:38:31.882Z,54.13
2023-02-22T22:41:01.061Z,55.20
2023-02-22T22:43:29.305Z,55.27
2023-02-22T22:45:59.425Z,48.97
2023-02-22T22:48:27.271Z,45.80
2023-02-22T22:51:02.569Z,47.13
2023-02-22T22:53:31.185Z,42.87
2023-02-22T22:56:03.738Z,51.07
2023-02-22T22:58:32.054Z,46.83
2023-02-22T23:01:01.588Z,47.17
2023-02-22T23:03:29.468Z,44.93
2023-02-22T23:05:56.672Z,47.90
2023-02-22T23:08:29.228Z,47.10
2023-02-22T23:10:57.102Z,47.10
2023-02-22T23:13:25.009Z,43.40
2023-02-22T23:15:54.718Z,42.40
2023-02-22T23:18:21.956Z,42.17
2023-02-22T23:20:55.022Z,49.20
2023-02-22T23:23:23.511Z,39.77
2023-02-22T23:25:50.797Z,34.17
2023-02-22T23:28:18.477Z,35.17
2023-02-22T23:30:45.688Z,36.83
2023-02-22T23:33:12.965Z,38.30
2023-02-22T23:35:42.388Z,41.97
2023-02-22T23:38:11.166Z,39.10
2023-02-22T23:40:38.917Z,42.27
2023-02-22T23:43:07.582Z,46.03
2023-02-22T23:45:38.575Z,55.90
2023-02-22T23:48:06.836Z,56.03
2023-02-22T23:50:36.363Z,56.80
2023-02-22T23:53:03.663Z,62.40
2023-02-22T23:55:31.620Z,62.03
2023-02-22T23:57:59.658Z,59.07
